Terminal Aerodrome Forecast
Issued by NWS Shreveport, LA

Current Version | Previous Version | Text Only | Print | Product List | Glossary On
Versions: 1 2 3 4 5 6 7 8 9 10 11 12
000
FTUS44 KSHV 050528
TAFMLU
TAF
KMLU 050528Z 0506/0606 00000KT P6SM FEW070
     FM051500 VRB04KT P6SM SCT030 SCT250
     FM051800 VRB04KT P6SM SCT045 SCT060 SCT250
     FM060000 VRB03KT P6SM SCT070 SCT250=

USA.gov is the U.S. government's official web portal to all federal, state and local government web resources and services.